createdAt,value
2023-02-09T00:01:34.854Z,169.90
2023-02-09T00:04:39.238Z,255.18
2023-02-09T00:07:43.718Z,268.13
2023-02-09T00:10:48.333Z,220.05
2023-02-09T00:13:54.427Z,139.48
2023-02-09T00:17:05.557Z,82.97
2023-02-09T00:20:10.519Z,137.57
2023-02-09T00:26:18.940Z,49.90
2023-02-09T00:29:24.911Z,25.05
2023-02-09T00:32:29.394Z,54.55
2023-02-09T00:35:33.828Z,24.73
2023-02-09T00:38:38.370Z,26.75
2023-02-09T00:42:00.999Z,40.42
2023-02-09T00:45:06.017Z,38.80
2023-02-09T00:48:10.729Z,23.13
2023-02-09T00:51:15.039Z,16.67
2023-02-09T00:54:19.547Z,28.53
2023-02-09T00:57:23.690Z,21.55
2023-02-09T01:00:28.020Z,10.50
2023-02-09T01:03:34.090Z,6.05
2023-02-09T01:06:38.577Z,27.80
2023-02-09T01:09:44.281Z,22.40
2023-02-09T01:12:49.094Z,13.63
2023-02-09T01:15:53.514Z,40.40
2023-02-09T01:19:00.543Z,6.90
2023-02-09T01:22:06.837Z,16.02
2023-02-09T01:25:11.337Z,15.23
2023-02-09T01:28:16.347Z,5.28
2023-02-09T01:31:27.351Z,42.50
2023-02-09T01:34:31.985Z,6.68
2023-02-09T01:37:37.059Z,9.32
2023-02-09T01:40:41.692Z,5.35
2023-02-09T01:44:01.419Z,8.20
2023-02-09T01:47:06.095Z,12.20
2023-02-09T01:50:11.020Z,17.53
2023-02-09T01:57:29.503Z,50.53
2023-02-09T02:00:36.910Z,37.25
2023-02-09T02:03:47.274Z,17.02
2023-02-09T02:06:58.863Z,160.40
2023-02-09T02:10:04.185Z,9.38
2023-02-09T02:13:11.250Z,6.90
2023-02-09T02:16:36.904Z,5.20
2023-02-09T02:20:01.569Z,66.70
2023-02-09T02:23:17.462Z,7.55
2023-02-09T02:26:30.950Z,8.75
2023-02-09T02:30:00.337Z,7.13
2023-02-09T02:33:23.191Z,7.57
2023-02-09T02:36:36.206Z,7.93
2023-02-09T02:40:00.672Z,5.45
2023-02-09T02:43:19.697Z,4.53
2023-02-09T02:49:45.517Z,7.25
2023-02-09T02:52:53.775Z,5.40
2023-02-09T02:56:07.406Z,41.50
2023-02-09T02:59:18.413Z,5.68
2023-02-09T03:02:27.647Z,15.98
2023-02-09T03:05:33.635Z,5.32
2023-02-09T03:08:49.777Z,11.80
2023-02-09T03:15:07.240Z,5.97
2023-02-09T03:18:17.575Z,4.57
2023-02-09T03:21:43.557Z,5.60
2023-02-09T03:25:12.169Z,3.97
2023-02-09T03:28:23.708Z,2.25
2023-02-09T03:31:29.652Z,3.63
2023-02-09T03:34:34.344Z,8.40
2023-02-09T03:37:38.338Z,12.57
2023-02-09T03:40:42.568Z,8.90
2023-02-09T03:44:05.675Z,55.08
2023-02-09T03:47:11.372Z,6.45
2023-02-09T03:53:19.755Z,11.52
2023-02-09T04:00:02.600Z,7.13
2023-02-09T04:03:16.194Z,11.70
2023-02-09T04:06:20.089Z,12.43
2023-02-09T04:09:24.715Z,49.45
2023-02-09T04:12:29.107Z,10.48
2023-02-09T04:15:33.543Z,8.50
2023-02-09T04:18:39.596Z,30.35
2023-02-09T04:21:44.102Z,39.75
2023-02-09T04:24:49.835Z,14.88
2023-02-09T04:31:00.444Z,149.18
2023-02-09T04:34:04.918Z,6.35
2023-02-09T04:37:09.213Z,7.38
2023-02-09T04:40:13.920Z,8.50
2023-02-09T04:43:19.309Z,367.25
2023-02-09T04:46:23.606Z,60.85
2023-02-09T04:49:28.052Z,122.82
2023-02-09T04:52:32.426Z,4.28
2023-02-09T04:55:41.245Z,35.22
2023-02-09T05:02:30.555Z,16.70
2023-02-09T05:05:34.486Z,22.20
2023-02-09T05:08:38.764Z,18.15
2023-02-09T05:11:45.323Z,11.27
2023-02-09T05:14:49.777Z,32.60
2023-02-09T05:17:54.211Z,25.95
2023-02-09T05:20:58.393Z,10.48
2023-02-09T05:24:02.480Z,78.22
2023-02-09T05:27:06.875Z,89.03
2023-02-09T05:30:12.497Z,5.68
2023-02-09T05:33:16.908Z,7.10
2023-02-09T05:36:20.907Z,40.15
2023-02-09T05:39:25.312Z,34.63
2023-02-09T05:42:29.518Z,45.55
2023-02-09T05:45:33.392Z,3.75
2023-02-09T05:48:37.615Z,12.75
2023-02-09T05:51:42.076Z,11.45
2023-02-09T05:54:48.789Z,38.45
2023-02-09T05:57:53.108Z,109.10
2023-02-09T06:00:57.161Z,66.00
2023-02-09T06:04:01.400Z,10.05
2023-02-09T06:07:05.875Z,20.48
2023-02-09T06:10:10.782Z,11.80
2023-02-09T06:13:16.303Z,3.63
2023-02-09T06:16:20.692Z,7.78
2023-02-09T06:19:25.586Z,58.08
2023-02-09T06:22:32.473Z,70.15
2023-02-09T06:25:36.586Z,18.58
2023-02-09T06:28:41.025Z,20.80
2023-02-09T06:31:45.413Z,19.58
2023-02-09T06:34:49.547Z,4.68
2023-02-09T06:37:57.350Z,3.97
2023-02-09T06:41:01.985Z,7.50
2023-02-09T06:44:07.043Z,15.93
2023-02-09T06:47:11.447Z,123.07
2023-02-09T06:50:18.030Z,15.95
2023-02-09T06:53:22.350Z,5.93
2023-02-09T06:56:26.886Z,22.02
2023-02-09T06:59:31.526Z,8.23
2023-02-09T07:02:36.472Z,25.77
2023-02-09T07:05:40.774Z,10.18
2023-02-09T07:08:45.730Z,66.55
2023-02-09T07:11:50.256Z,19.30
2023-02-09T07:14:54.355Z,19.90
2023-02-09T07:17:59.488Z,98.60
2023-02-09T07:21:10.179Z,18.83
2023-02-09T07:24:14.180Z,39.70
2023-02-09T07:27:20.021Z,81.28
2023-02-09T07:33:28.174Z,15.57
2023-02-09T07:36:32.761Z,24.08
2023-02-09T07:39:37.726Z,19.85
2023-02-09T07:42:41.816Z,30.30
2023-02-09T07:45:45.869Z,57.55
2023-02-09T07:48:51.077Z,40.45
2023-02-09T07:51:55.512Z,30.77
2023-02-09T07:55:01.755Z,14.77
2023-02-09T07:58:06.608Z,8.80
2023-02-09T08:01:13.402Z,19.05
2023-02-09T08:04:17.776Z,9.60
2023-02-09T08:07:23.939Z,9.68
2023-02-09T08:10:30.198Z,7.57
2023-02-09T08:13:38.940Z,7.00
2023-02-09T08:16:43.729Z,11.20
2023-02-09T08:19:52.248Z,9.68
2023-02-09T08:23:01.191Z,5.55
2023-02-09T08:26:09.934Z,16.27
2023-02-09T08:29:14.512Z,45.58
2023-02-09T08:32:19.119Z,105.68
2023-02-09T08:35:23.490Z,93.30
2023-02-09T08:38:28.026Z,88.55
2023-02-09T08:41:32.318Z,78.22
2023-02-09T08:44:36.315Z,55.30
2023-02-09T08:47:40.573Z,45.75
2023-02-09T08:50:45.041Z,84.43
2023-02-09T08:53:52.796Z,58.47
2023-02-09T08:56:57.417Z,85.57
2023-02-09T09:00:02.082Z,87.03
2023-02-09T09:03:08.607Z,310.05
2023-02-09T09:06:13.493Z,337.02
2023-02-09T09:09:18.232Z,206.63
2023-02-09T09:12:22.770Z,172.90
2023-02-09T09:15:29.702Z,211.57
2023-02-09T09:18:34.333Z,215.95
2023-02-09T09:21:38.685Z,228.57
2023-02-09T09:24:43.294Z,163.53
2023-02-09T09:27:47.346Z,135.33
2023-02-09T09:30:51.206Z,126.25
2023-02-09T09:33:56.820Z,158.23
2023-02-09T09:37:03.078Z,97.75
2023-02-09T09:40:08.409Z,113.80
2023-02-09T09:46:42.470Z,284.42
2023-02-09T09:49:48.337Z,164.55
2023-02-09T09:52:59.806Z,106.25
2023-02-09T09:56:08.376Z,89.18
2023-02-09T09:59:22.531Z,90.90
2023-02-09T10:02:27.395Z,87.57
2023-02-09T10:05:38.972Z,88.20
2023-02-09T10:08:55.548Z,88.95
2023-02-09T10:12:44.583Z,95.68
2023-02-09T10:15:59.728Z,96.32
2023-02-09T10:19:18.950Z,103.22
2023-02-09T10:22:23.450Z,142.98
2023-02-09T10:25:57.747Z,95.22
2023-02-09T10:29:26.029Z,58.55
2023-02-09T10:32:44.535Z,45.65
2023-02-09T10:36:09.002Z,46.58
2023-02-09T10:39:20.966Z,81.47
2023-02-09T10:42:39.342Z,67.20
2023-02-09T10:45:49.980Z,84.75
2023-02-09T10:48:53.988Z,40.42
2023-02-09T10:52:22.949Z,43.50
2023-02-09T10:55:39.923Z,37.63
2023-02-09T10:58:53.878Z,56.20
2023-02-09T11:02:03.036Z,46.70
2023-02-09T11:05:23.148Z,50.78
2023-02-09T11:08:54.386Z,55.00
2023-02-09T11:12:00.042Z,48.05
2023-02-09T11:15:07.575Z,77.63
2023-02-09T11:18:30.146Z,59.10
2023-02-09T11:21:56.005Z,99.68
2023-02-09T11:28:43.126Z,56.70
2023-02-09T11:32:02.836Z,90.65
2023-02-09T11:35:13.062Z,81.75
2023-02-09T11:38:21.947Z,184.05
2023-02-09T11:41:52.368Z,285.35
2023-02-09T11:45:03.150Z,273.38
2023-02-09T11:48:27.654Z,224.20
2023-02-09T11:51:40.438Z,235.77
2023-02-09T11:54:48.918Z,157.48
2023-02-09T11:58:03.717Z,95.20
2023-02-09T12:01:35.415Z,66.80
2023-02-09T12:04:43.894Z,75.05
2023-02-09T12:08:10.229Z,97.07
2023-02-09T12:11:53.480Z,103.63
2023-02-09T12:15:21.133Z,66.47
2023-02-09T12:18:29.102Z,67.10
2023-02-09T12:21:39.271Z,40.15
2023-02-09T12:25:03.883Z,12.27
2023-02-09T12:28:11.391Z,25.65
2023-02-09T12:31:28.078Z,65.88
2023-02-09T12:34:45.496Z,45.97
2023-02-09T12:38:18.015Z,33.50
2023-02-09T12:41:32.840Z,63.15
2023-02-09T12:44:39.306Z,41.47
2023-02-09T12:47:46.834Z,112.85
2023-02-09T12:50:54.965Z,70.00
2023-02-09T12:53:59.421Z,79.82
2023-02-09T12:57:21.534Z,72.70
2023-02-09T13:00:34.655Z,181.93
2023-02-09T13:03:54.983Z,142.73
2023-02-09T13:07:00.151Z,59.95
2023-02-09T13:10:26.268Z,84.65
2023-02-09T13:13:36.409Z,69.63
2023-02-09T13:17:22.625Z,74.72
2023-02-09T13:24:04.557Z,119.13
2023-02-09T13:27:35.177Z,175.63
2023-02-09T13:30:51.544Z,161.23
2023-02-09T13:34:07.739Z,154.27
2023-02-09T13:37:25.005Z,184.68
2023-02-09T13:43:39.627Z,135.73
2023-02-09T13:46:54.182Z,130.13
2023-02-09T13:50:05.469Z,231.60
2023-02-09T13:53:11.854Z,232.63
2023-02-09T13:56:17.031Z,260.17
2023-02-09T13:59:21.617Z,200.65
2023-02-09T14:02:28.194Z,203.63
2023-02-09T14:05:39.366Z,169.88
2023-02-09T14:08:44.036Z,158.23
2023-02-09T14:11:55.584Z,397.45
2023-02-09T14:15:18.698Z,283.83
2023-02-09T14:18:44.010Z,229.00
2023-02-09T14:21:51.027Z,217.45
2023-02-09T14:24:55.518Z,186.25
2023-02-09T14:28:00.201Z,153.18
2023-02-09T14:31:04.413Z,251.60
2023-02-09T14:34:22.953Z,225.80
2023-02-09T14:37:31.664Z,170.43
2023-02-09T14:40:38.008Z,224.68
2023-02-09T14:43:42.283Z,165.68
2023-02-09T14:46:55.584Z,162.52
2023-02-09T14:50:00.799Z,192.35
2023-02-09T14:53:12.733Z,155.05
2023-02-09T14:56:31.610Z,177.70
2023-02-09T14:59:35.931Z,217.68
2023-02-09T15:02:40.518Z,264.42
2023-02-09T15:05:45.492Z,214.82
2023-02-09T15:12:05.872Z,154.00
2023-02-09T15:15:18.479Z,140.70
2023-02-09T15:18:25.754Z,94.22
2023-02-09T15:21:32.906Z,63.10
2023-02-09T15:24:37.747Z,60.95
2023-02-09T15:27:53.354Z,69.85
2023-02-09T15:31:16.113Z,106.15
2023-02-09T15:34:23.246Z,101.43
2023-02-09T15:37:38.757Z,112.43
2023-02-09T15:41:03.393Z,85.75
2023-02-09T15:44:42.036Z,111.95
2023-02-09T15:47:49.703Z,89.57
2023-02-09T15:50:54.239Z,105.70
2023-02-09T15:54:03.069Z,135.70
2023-02-09T15:57:07.312Z,120.60
2023-02-09T16:00:37.724Z,111.22
2023-02-09T16:03:42.577Z,127.28
2023-02-09T16:09:55.397Z,133.05
2023-02-09T16:13:02.006Z,112.28
2023-02-09T16:16:16.966Z,139.18
2023-02-09T16:19:26.332Z,160.88
2023-02-09T16:22:30.549Z,141.32
2023-02-09T16:25:37.136Z,140.93
2023-02-09T16:28:44.081Z,120.00
2023-02-09T16:31:49.695Z,163.05
2023-02-09T16:34:55.034Z,185.02
2023-02-09T16:38:02.450Z,175.10
2023-02-09T16:41:27.011Z,129.68
2023-02-09T16:44:34.160Z,115.80
2023-02-09T16:47:38.571Z,151.52
2023-02-09T16:50:46.236Z,129.68
2023-02-09T16:53:52.781Z,144.00
2023-02-09T16:56:57.489Z,112.93
2023-02-09T17:00:02.045Z,70.72
2023-02-09T17:03:45.189Z,61.05
2023-02-09T17:06:53.640Z,92.55
2023-02-09T17:09:58.278Z,42.95
2023-02-09T17:13:05.181Z,22.08
2023-02-09T17:16:34.939Z,57.47
2023-02-09T17:19:47.956Z,34.15
2023-02-09T17:22:55.101Z,35.35
2023-02-09T17:26:00.242Z,18.10
2023-02-09T17:29:04.459Z,41.60
2023-02-09T17:32:12.115Z,25.63
2023-02-09T17:35:29.065Z,72.70
2023-02-09T17:38:45.102Z,36.72
2023-02-09T17:41:50.776Z,53.13
2023-02-09T17:44:57.375Z,41.45
2023-02-09T17:48:03.288Z,38.28
2023-02-09T17:51:10.472Z,31.90
2023-02-09T17:54:17.267Z,18.00
2023-02-09T17:57:22.364Z,12.93
2023-02-09T18:00:28.680Z,16.02
2023-02-09T18:03:33.044Z,5.95
2023-02-09T18:06:41.764Z,55.88
2023-02-09T18:09:46.250Z,20.58
2023-02-09T18:12:50.944Z,11.95
2023-02-09T18:15:56.048Z,18.92
2023-02-09T18:19:00.614Z,13.50
2023-02-09T18:22:05.305Z,16.08
2023-02-09T18:25:20.644Z,17.13
2023-02-09T18:28:25.441Z,26.27
2023-02-09T18:31:29.803Z,27.65
2023-02-09T18:34:34.219Z,31.63
2023-02-09T18:37:39.099Z,19.63
2023-02-09T18:43:47.358Z,28.02
2023-02-09T18:46:52.861Z,43.33
2023-02-09T18:49:57.776Z,29.92
2023-02-09T18:53:03.867Z,15.63
2023-02-09T18:56:15.138Z,31.90
2023-02-09T18:59:19.584Z,21.73
2023-02-09T19:02:24.539Z,25.58
2023-02-09T19:05:33.522Z,25.98
2023-02-09T19:08:39.750Z,31.92
2023-02-09T19:11:44.185Z,39.03
2023-02-09T19:14:49.799Z,72.82
2023-02-09T19:17:56.685Z,19.13
2023-02-09T19:21:05.797Z,20.42
2023-02-09T19:24:09.829Z,5.65
2023-02-09T19:27:17.627Z,65.32
2023-02-09T19:30:27.424Z,23.80
2023-02-09T19:33:31.849Z,90.45
2023-02-09T19:36:35.919Z,48.15
2023-02-09T19:40:11.334Z,65.30
2023-02-09T19:43:16.804Z,13.35
2023-02-09T19:46:21.323Z,12.80
2023-02-09T19:49:39.890Z,7.70
2023-02-09T19:52:46.393Z,9.43
2023-02-09T19:55:52.310Z,9.73
2023-02-09T19:58:59.202Z,5.32
2023-02-09T20:02:03.786Z,5.50
2023-02-09T20:05:09.001Z,6.57
2023-02-09T20:08:16.874Z,8.70
2023-02-09T20:11:22.260Z,7.68
2023-02-09T20:14:31.454Z,7.88
2023-02-09T20:17:37.428Z,8.73
2023-02-09T20:20:44.480Z,11.00
2023-02-09T20:23:58.905Z,4.47
2023-02-09T20:27:08.581Z,5.55
2023-02-09T20:30:13.738Z,10.23
2023-02-09T20:36:39.062Z,10.13
2023-02-09T20:39:45.228Z,15.18
2023-02-09T20:43:07.730Z,55.08
2023-02-09T20:47:01.127Z,30.05
2023-02-09T20:50:06.088Z,33.53
2023-02-09T20:56:14.591Z,44.70
2023-02-09T20:59:19.132Z,13.05
2023-02-09T21:02:23.640Z,40.42
2023-02-09T21:05:28.286Z,34.08
2023-02-09T21:08:32.602Z,12.80
2023-02-09T21:11:36.974Z,11.83
2023-02-09T21:14:43.657Z,7.80
2023-02-09T21:17:52.489Z,11.65
2023-02-09T21:20:56.715Z,15.07
2023-02-09T21:24:01.450Z,16.00
2023-02-09T21:27:07.417Z,9.80
2023-02-09T21:30:12.728Z,21.00
2023-02-09T21:33:17.423Z,25.15
2023-02-09T21:36:21.507Z,22.67
2023-02-09T21:39:25.811Z,16.38
2023-02-09T21:42:32.028Z,9.77
2023-02-09T21:45:48.881Z,14.70
2023-02-09T21:48:54.511Z,15.05
2023-02-09T21:52:00.114Z,16.27
2023-02-09T21:55:05.549Z,17.85
2023-02-09T21:58:09.933Z,19.10
2023-02-09T22:01:14.613Z,21.23
2023-02-09T22:04:18.963Z,12.82
2023-02-09T22:07:23.385Z,39.53
2023-02-09T22:10:28.017Z,16.52
2023-02-09T22:13:33.084Z,23.40
2023-02-09T22:19:41.145Z,13.95
2023-02-09T22:22:47.860Z,14.25
2023-02-09T22:25:52.303Z,12.48
2023-02-09T22:28:56.605Z,28.60
2023-02-09T22:32:01.041Z,12.95
2023-02-09T22:35:05.303Z,12.15
2023-02-09T22:38:09.487Z,16.88
2023-02-09T22:41:24.802Z,19.73
2023-02-09T22:44:30.918Z,12.25
2023-02-09T22:47:35.655Z,43.47
2023-02-09T22:50:44.932Z,21.02
2023-02-09T22:53:49.723Z,13.90
2023-02-09T22:56:54.051Z,6.32
2023-02-09T23:00:01.108Z,9.25
2023-02-09T23:03:08.098Z,27.75
2023-02-09T23:06:16.655Z,24.05
2023-02-09T23:09:21.107Z,30.75
2023-02-09T23:12:25.261Z,127.18
2023-02-09T23:15:29.652Z,68.03
2023-02-09T23:18:34.008Z,43.92
2023-02-09T23:21:41.685Z,22.13
2023-02-09T23:24:46.044Z,14.10
2023-02-09T23:27:50.543Z,24.27
2023-02-09T23:30:54.439Z,21.20
2023-02-09T23:33:58.941Z,28.08
2023-02-09T23:37:13.580Z,14.93
2023-02-09T23:40:33.183Z,15.48
2023-02-09T23:43:40.863Z,21.25
2023-02-09T23:46:45.741Z,8.35
2023-02-09T23:49:51.484Z,8.50
2023-02-09T23:52:56.016Z,7.25
2023-02-09T23:56:08.486Z,11.77
2023-02-09T23:59:15.891Z,9.00
